createdAt,value
2023-03-29T00:01:42.271Z,82.24
2023-03-29T00:04:13.486Z,82.43
2023-03-29T00:06:41.887Z,82.40
2023-03-29T00:09:09.857Z,82.23
2023-03-29T00:11:36.230Z,81.31
2023-03-29T00:14:02.832Z,81.93
2023-03-29T00:16:29.475Z,82.34
2023-03-29T00:18:55.960Z,82.14
2023-03-29T00:21:22.599Z,82.23
2023-03-29T00:23:48.944Z,82.18
2023-03-29T00:26:15.547Z,82.26
2023-03-29T00:28:42.029Z,82.12
2023-03-29T00:31:11.805Z,82.37
2023-03-29T00:33:38.743Z,82.14
2023-03-29T00:36:07.336Z,81.77
2023-03-29T00:38:34.337Z,81.87
2023-03-29T00:41:01.060Z,82.01
2023-03-29T00:43:27.922Z,81.97
2023-03-29T00:45:54.407Z,82.18
2023-03-29T00:48:25.942Z,82.18
2023-03-29T00:50:57.316Z,82.50
2023-03-29T00:53:29.600Z,81.60
2023-03-29T00:56:02.375Z,82.05
2023-03-29T00:58:35.913Z,81.82
2023-03-29T01:01:15.553Z,82.15
2023-03-29T01:03:54.642Z,82.00
2023-03-29T01:06:24.788Z,81.83
2023-03-29T01:08:55.606Z,81.89
2023-03-29T01:11:29.127Z,82.58
2023-03-29T01:13:59.922Z,81.75
2023-03-29T01:16:28.713Z,81.68
2023-03-29T01:18:58.296Z,81.24
2023-03-29T01:21:32.277Z,81.16
2023-03-29T01:24:20.521Z,80.85
2023-03-29T01:27:00.730Z,80.45
2023-03-29T01:29:45.528Z,79.76
2023-03-29T01:32:17.180Z,79.58
2023-03-29T01:34:56.433Z,79.19
2023-03-29T01:37:36.270Z,79.41
2023-03-29T01:40:05.201Z,79.43
2023-03-29T01:42:51.267Z,78.65
2023-03-29T01:45:31.343Z,79.04
2023-03-29T01:48:06.011Z,78.41
2023-03-29T01:50:39.130Z,78.61
2023-03-29T01:53:12.613Z,78.37
2023-03-29T01:55:42.937Z,77.86
2023-03-29T01:58:12.366Z,78.38
2023-03-29T02:00:41.162Z,77.60
2023-03-29T02:03:09.921Z,78.27
2023-03-29T02:05:39.565Z,78.42
2023-03-29T02:08:09.055Z,77.93
2023-03-29T02:10:36.914Z,78.84
2023-03-29T02:13:03.917Z,78.27
2023-03-29T02:15:30.373Z,78.78
2023-03-29T02:17:57.027Z,78.79
2023-03-29T02:20:30.216Z,79.70
2023-03-29T02:23:12.253Z,79.31
2023-03-29T02:25:38.984Z,78.98
2023-03-29T02:28:06.932Z,79.79
2023-03-29T02:30:48.603Z,79.76
2023-03-29T02:33:23.877Z,79.79
2023-03-29T02:36:05.851Z,79.91
2023-03-29T02:38:32.974Z,79.91
2023-03-29T02:41:00.558Z,79.33
2023-03-29T02:43:28.770Z,79.47
2023-03-29T02:45:56.228Z,79.76
2023-03-29T02:48:27.509Z,80.83
2023-03-29T02:50:58.240Z,79.89
2023-03-29T02:53:34.486Z,80.13
2023-03-29T02:56:02.246Z,80.17
2023-03-29T02:58:29.503Z,80.76
2023-03-29T03:00:58.616Z,80.02
2023-03-29T03:03:25.401Z,80.55
2023-03-29T03:05:52.448Z,80.16
2023-03-29T03:08:18.831Z,81.14
2023-03-29T03:10:45.996Z,81.08
2023-03-29T03:13:12.643Z,81.53
2023-03-29T03:15:42.590Z,81.21
2023-03-29T03:18:10.546Z,81.28
2023-03-29T03:20:37.009Z,81.53
2023-03-29T03:23:03.603Z,81.51
2023-03-29T03:25:30.276Z,81.26
2023-03-29T03:27:57.113Z,81.74
2023-03-29T03:30:23.568Z,81.96
2023-03-29T03:32:51.689Z,82.40
2023-03-29T03:35:19.195Z,82.56
2023-03-29T03:37:45.677Z,82.57
2023-03-29T03:40:13.663Z,82.53
2023-03-29T03:42:41.039Z,81.63
2023-03-29T03:45:08.950Z,82.35
2023-03-29T03:47:37.206Z,82.00
2023-03-29T03:50:04.128Z,82.16
2023-03-29T03:52:31.107Z,82.29
2023-03-29T03:54:57.481Z,82.82
2023-03-29T03:57:25.062Z,82.58
2023-03-29T03:59:52.008Z,82.59
2023-03-29T04:02:20.225Z,82.80
2023-03-29T04:04:47.596Z,82.31
2023-03-29T04:07:14.340Z,82.66
2023-03-29T04:09:40.806Z,82.02
2023-03-29T04:12:07.365Z,82.36
2023-03-29T04:14:33.700Z,83.09
2023-03-29T04:17:00.099Z,82.66
2023-03-29T04:19:27.486Z,82.82
2023-03-29T04:21:53.984Z,82.28
2023-03-29T04:24:20.346Z,82.09
2023-03-29T04:26:47.645Z,81.93
2023-03-29T04:29:13.996Z,82.51
2023-03-29T04:31:40.340Z,81.80
2023-03-29T04:34:07.089Z,81.90
2023-03-29T04:36:33.580Z,82.20
2023-03-29T04:39:01.855Z,82.29
2023-03-29T04:41:28.699Z,82.09
2023-03-29T04:43:56.031Z,81.81
2023-03-29T04:46:25.429Z,81.38
2023-03-29T04:48:52.476Z,81.94
2023-03-29T04:51:20.072Z,82.38
2023-03-29T04:53:46.418Z,82.10
2023-03-29T04:56:13.300Z,81.95
2023-03-29T04:58:39.667Z,82.31
2023-03-29T05:01:06.140Z,82.47
2023-03-29T05:03:32.536Z,82.06
2023-03-29T05:06:07.101Z,82.08
2023-03-29T05:08:34.844Z,82.33
2023-03-29T05:11:01.894Z,82.35
2023-03-29T05:13:28.501Z,82.19
2023-03-29T05:15:55.006Z,82.56
2023-03-29T05:18:22.150Z,81.87
2023-03-29T05:20:51.128Z,82.29
2023-03-29T05:23:17.524Z,81.83
2023-03-29T05:25:44.030Z,81.39
2023-03-29T05:28:10.434Z,82.01
2023-03-29T05:30:36.867Z,81.32
2023-03-29T05:33:05.512Z,81.54
2023-03-29T05:35:32.403Z,81.59
2023-03-29T05:38:00.567Z,81.94
2023-03-29T05:40:27.122Z,81.97
2023-03-29T05:42:53.681Z,81.83
2023-03-29T05:45:20.291Z,81.40
2023-03-29T05:47:46.727Z,81.16
2023-03-29T05:50:13.132Z,81.70
2023-03-29T05:52:41.081Z,80.64
2023-03-29T05:55:08.259Z,80.92
2023-03-29T05:57:38.204Z,81.29
2023-03-29T06:00:32.715Z,80.87
2023-03-29T06:03:03.740Z,80.60
2023-03-29T06:05:36.873Z,81.07
2023-03-29T06:08:03.687Z,81.46
2023-03-29T06:10:30.075Z,81.63
2023-03-29T06:12:56.490Z,81.46
2023-03-29T06:15:24.082Z,81.00
2023-03-29T06:17:50.876Z,81.53
2023-03-29T06:20:17.687Z,81.32
2023-03-29T06:22:46.605Z,81.07
2023-03-29T06:25:14.120Z,80.53
2023-03-29T06:27:40.808Z,80.47
2023-03-29T06:30:07.974Z,80.97
2023-03-29T06:32:35.647Z,80.62
2023-03-29T06:35:02.527Z,80.67
2023-03-29T06:37:29.402Z,80.34
2023-03-29T06:39:57.109Z,80.13
2023-03-29T06:42:24.078Z,79.39
2023-03-29T06:44:50.753Z,79.56
2023-03-29T06:47:20.232Z,80.34
2023-03-29T06:49:46.669Z,80.25
2023-03-29T06:52:13.056Z,80.05
2023-03-29T06:54:39.610Z,79.49
2023-03-29T06:57:06.148Z,80.05
2023-03-29T06:59:33.353Z,80.22
2023-03-29T07:01:59.795Z,80.03
2023-03-29T07:04:26.597Z,79.24
2023-03-29T07:07:01.432Z,80.16
2023-03-29T07:09:29.948Z,79.49
2023-03-29T07:11:57.659Z,80.21
2023-03-29T07:14:28.484Z,79.64
2023-03-29T07:16:56.175Z,79.65
2023-03-29T07:19:24.261Z,79.65
2023-03-29T07:21:53.227Z,79.57
2023-03-29T07:24:20.799Z,78.36
2023-03-29T07:27:00.234Z,79.50
2023-03-29T07:29:30.476Z,79.52
2023-03-29T07:31:56.962Z,79.23
2023-03-29T07:34:24.340Z,79.66
2023-03-29T07:36:51.429Z,79.71
2023-03-29T07:39:17.843Z,80.68
2023-03-29T07:41:44.249Z,80.55
2023-03-29T07:44:10.735Z,79.83
2023-03-29T07:46:37.208Z,79.98
2023-03-29T07:49:03.839Z,79.57
2023-03-29T07:51:30.375Z,78.79
2023-03-29T07:53:56.802Z,78.32
2023-03-29T07:56:23.227Z,78.88
2023-03-29T07:58:49.632Z,78.18
2023-03-29T08:01:18.874Z,77.71
2023-03-29T08:03:46.683Z,78.21
2023-03-29T08:06:13.251Z,77.60
2023-03-29T08:08:39.669Z,77.33
2023-03-29T08:11:08.915Z,77.47
2023-03-29T08:13:35.414Z,77.43
2023-03-29T08:16:02.007Z,76.64
2023-03-29T08:18:28.434Z,77.50
2023-03-29T08:20:54.904Z,77.07
2023-03-29T08:23:21.494Z,77.05
2023-03-29T08:25:47.815Z,76.92
2023-03-29T08:28:14.210Z,77.24
2023-03-29T08:30:41.187Z,77.11
2023-03-29T08:33:07.807Z,77.13
2023-03-29T08:35:34.599Z,76.78
2023-03-29T08:38:01.269Z,77.18
2023-03-29T08:40:30.169Z,77.25
2023-03-29T08:43:07.851Z,76.52
2023-03-29T08:46:01.554Z,76.54
2023-03-29T08:48:57.032Z,76.23
2023-03-29T08:51:23.407Z,77.13
2023-03-29T08:53:58.915Z,77.30
2023-03-29T08:56:31.524Z,77.05
2023-03-29T08:59:01.146Z,77.32
2023-03-29T09:01:33.820Z,77.09
2023-03-29T09:04:09.017Z,78.39
2023-03-29T09:06:35.990Z,77.36
2023-03-29T09:09:02.611Z,77.69
2023-03-29T09:12:03.084Z,77.43
2023-03-29T09:14:38.074Z,77.00
2023-03-29T09:17:30.611Z,77.60
2023-03-29T09:20:15.922Z,77.64
2023-03-29T09:22:57.737Z,76.53
2023-03-29T09:25:53.595Z,77.22
2023-03-29T09:28:36.948Z,77.67
2023-03-29T09:31:16.947Z,77.13
2023-03-29T09:33:54.848Z,77.64
2023-03-29T09:36:27.038Z,76.13
2023-03-29T09:38:55.499Z,77.61
2023-03-29T09:41:41.452Z,76.54
2023-03-29T09:44:23.908Z,75.81
2023-03-29T09:46:58.287Z,76.95
2023-03-29T09:49:33.046Z,76.14
2023-03-29T09:52:05.760Z,76.34
2023-03-29T09:54:32.457Z,75.84
2023-03-29T09:56:59.869Z,76.48
2023-03-29T09:59:26.309Z,74.98
2023-03-29T10:01:52.927Z,75.50
2023-03-29T10:04:21.430Z,76.23
2023-03-29T10:06:51.853Z,76.87
2023-03-29T10:09:24.193Z,76.14
2023-03-29T10:11:56.742Z,76.58
2023-03-29T10:14:31.697Z,76.68
2023-03-29T10:16:59.045Z,77.00
2023-03-29T10:19:32.905Z,76.39
2023-03-29T10:22:20.382Z,76.32
2023-03-29T10:24:52.139Z,76.10
2023-03-29T10:27:28.495Z,75.82
2023-03-29T10:29:56.759Z,74.60
2023-03-29T10:32:32.266Z,74.02
2023-03-29T10:35:23.462Z,74.38
2023-03-29T10:37:53.189Z,75.48
2023-03-29T10:40:30.677Z,76.53
2023-03-29T10:43:25.354Z,76.49
2023-03-29T10:45:54.960Z,75.63
2023-03-29T10:48:29.969Z,75.11
2023-03-29T10:51:02.346Z,74.56
2023-03-29T10:53:35.233Z,76.86
2023-03-29T10:56:20.962Z,75.66
2023-03-29T10:59:16.790Z,76.31
2023-03-29T11:02:14.164Z,76.29
2023-03-29T11:04:46.901Z,77.45
2023-03-29T11:07:31.331Z,77.07
2023-03-29T11:10:05.748Z,76.78
2023-03-29T11:12:45.738Z,77.67
2023-03-29T11:15:46.398Z,79.16
2023-03-29T11:18:31.593Z,79.60
2023-03-29T11:21:11.701Z,80.59
2023-03-29T11:23:50.814Z,81.10
2023-03-29T11:26:23.941Z,81.77
2023-03-29T11:28:57.952Z,82.87
2023-03-29T11:31:30.082Z,81.88
2023-03-29T11:34:02.327Z,80.85
2023-03-29T11:36:42.694Z,82.42
2023-03-29T11:39:30.199Z,81.73
2023-03-29T11:42:07.721Z,80.59
2023-03-29T11:44:36.498Z,80.22
2023-03-29T11:47:15.490Z,79.54
2023-03-29T11:49:53.103Z,79.49
2023-03-29T11:52:25.096Z,78.55
2023-03-29T11:55:03.425Z,78.88
2023-03-29T11:57:58.827Z,77.68
2023-03-29T12:00:38.789Z,77.64
2023-03-29T12:03:36.959Z,77.92
2023-03-29T12:06:11.091Z,77.82
2023-03-29T12:08:44.136Z,78.62
2023-03-29T12:11:43.742Z,78.61
2023-03-29T12:14:48.064Z,78.22
2023-03-29T12:17:23.101Z,78.50
2023-03-29T12:20:08.143Z,78.81
2023-03-29T12:22:34.880Z,78.92
2023-03-29T12:25:05.118Z,80.23
2023-03-29T12:27:37.540Z,79.95
2023-03-29T12:30:18.851Z,79.12
2023-03-29T12:33:05.661Z,80.09
2023-03-29T12:35:47.041Z,80.32
2023-03-29T12:38:30.713Z,80.68
2023-03-29T12:41:00.623Z,81.27
2023-03-29T12:43:43.349Z,80.54
2023-03-29T12:46:20.143Z,81.36
2023-03-29T12:48:50.397Z,81.54
2023-03-29T12:51:23.444Z,81.96
2023-03-29T12:53:55.683Z,82.04
2023-03-29T12:56:54.141Z,81.80
2023-03-29T12:59:38.784Z,81.28
2023-03-29T13:02:14.476Z,81.17
2023-03-29T13:04:43.735Z,80.62
2023-03-29T13:07:22.187Z,80.62
2023-03-29T13:09:56.724Z,80.90
2023-03-29T13:12:35.219Z,81.56
2023-03-29T13:15:07.762Z,81.29
2023-03-29T13:17:43.273Z,80.51
2023-03-29T13:20:20.121Z,80.34
2023-03-29T13:22:52.183Z,80.26
2023-03-29T13:25:36.972Z,80.47
2023-03-29T13:28:11.346Z,81.15
2023-03-29T13:30:52.065Z,79.52
2023-03-29T13:33:45.278Z,79.49
2023-03-29T13:36:34.143Z,79.89
2023-03-29T13:39:07.870Z,79.86
2023-03-29T13:41:40.654Z,79.78
2023-03-29T13:44:22.158Z,79.43
2023-03-29T13:47:00.903Z,80.36
2023-03-29T13:49:30.901Z,80.20
2023-03-29T13:52:30.075Z,79.27
2023-03-29T13:55:04.018Z,79.17
2023-03-29T13:57:49.414Z,79.24
2023-03-29T14:00:25.304Z,78.11
2023-03-29T14:03:01.511Z,78.19
2023-03-29T14:05:54.820Z,78.42
2023-03-29T14:08:28.916Z,77.66
2023-03-29T14:10:56.538Z,75.60
2023-03-29T14:13:24.662Z,76.82
2023-03-29T14:16:02.716Z,76.58
2023-03-29T14:18:37.163Z,76.60
2023-03-29T14:21:03.938Z,76.48
2023-03-29T14:23:33.986Z,76.48
2023-03-29T14:26:15.706Z,76.55
2023-03-29T14:28:49.399Z,77.00
2023-03-29T14:31:30.378Z,77.38
2023-03-29T14:33:57.856Z,77.05
2023-03-29T14:36:26.363Z,76.35
2023-03-29T14:38:57.921Z,76.25
2023-03-29T14:41:30.177Z,75.42
2023-03-29T14:43:57.702Z,75.35
2023-03-29T14:46:25.620Z,74.66
2023-03-29T14:48:52.497Z,76.30
2023-03-29T14:51:20.424Z,74.40
2023-03-29T14:53:48.125Z,75.05
2023-03-29T14:56:18.205Z,75.57
2023-03-29T14:58:48.657Z,74.83
2023-03-29T15:01:21.741Z,75.15
2023-03-29T15:03:57.534Z,74.16
2023-03-29T15:06:26.307Z,74.78
2023-03-29T15:09:04.349Z,74.92
2023-03-29T15:11:33.943Z,74.29
2023-03-29T15:14:09.025Z,74.61
2023-03-29T15:16:45.605Z,74.59
2023-03-29T15:19:22.543Z,74.17
2023-03-29T15:21:51.006Z,73.87
2023-03-29T15:24:23.393Z,74.41
2023-03-29T15:27:00.008Z,74.23
2023-03-29T15:29:35.196Z,74.28
2023-03-29T15:32:02.169Z,74.63
2023-03-29T15:34:30.893Z,73.49
2023-03-29T15:36:57.828Z,74.46
2023-03-29T15:39:25.068Z,74.14
2023-03-29T15:41:53.593Z,74.79
2023-03-29T15:44:27.901Z,74.19
2023-03-29T15:46:58.283Z,73.81
2023-03-29T15:49:24.973Z,73.54
2023-03-29T15:51:53.980Z,74.01
2023-03-29T15:54:21.861Z,73.63
2023-03-29T15:56:52.566Z,74.10
2023-03-29T15:59:19.182Z,73.31
2023-03-29T16:01:46.909Z,73.06
2023-03-29T16:04:17.050Z,73.92
2023-03-29T16:06:48.545Z,73.12
2023-03-29T16:09:17.785Z,73.95
2023-03-29T16:11:45.507Z,73.50
2023-03-29T16:14:19.023Z,74.23
2023-03-29T16:16:45.440Z,74.12
2023-03-29T16:19:11.883Z,73.48
2023-03-29T16:21:38.326Z,74.42
2023-03-29T16:24:05.015Z,74.76
2023-03-29T16:26:31.605Z,74.79
2023-03-29T16:28:57.986Z,74.17
2023-03-29T16:31:27.168Z,75.02
2023-03-29T16:33:54.003Z,75.16
2023-03-29T16:36:20.414Z,74.67
2023-03-29T16:38:47.452Z,74.63
2023-03-29T16:41:17.512Z,75.06
2023-03-29T16:43:44.170Z,75.06
2023-03-29T16:46:11.250Z,76.13
2023-03-29T16:48:38.005Z,75.34
2023-03-29T16:51:05.139Z,75.81
2023-03-29T16:53:31.720Z,76.19
2023-03-29T16:55:58.036Z,76.04
2023-03-29T16:58:24.684Z,76.45
2023-03-29T17:00:54.228Z,76.64
2023-03-29T17:03:21.010Z,76.85
2023-03-29T17:05:48.753Z,77.16
2023-03-29T17:08:15.320Z,77.13
2023-03-29T17:10:42.277Z,77.67
2023-03-29T17:13:09.222Z,77.55
2023-03-29T17:15:38.912Z,77.48
2023-03-29T17:18:06.377Z,78.16
2023-03-29T17:20:32.796Z,78.05
2023-03-29T17:22:59.188Z,78.02
2023-03-29T17:25:25.593Z,77.90
2023-03-29T17:27:52.138Z,78.17
2023-03-29T17:30:18.761Z,78.06
2023-03-29T17:32:45.670Z,78.91
2023-03-29T17:35:13.222Z,79.19
2023-03-29T17:37:39.785Z,79.06
2023-03-29T17:40:11.291Z,78.88
2023-03-29T17:42:37.682Z,79.17
2023-03-29T17:45:04.532Z,79.62
2023-03-29T17:47:30.868Z,79.58
2023-03-29T17:49:57.494Z,79.65
2023-03-29T17:52:23.892Z,79.86
2023-03-29T17:54:50.420Z,80.14
2023-03-29T17:57:17.051Z,80.33
2023-03-29T17:59:46.396Z,80.64
2023-03-29T18:02:23.885Z,80.58
2023-03-29T18:04:50.578Z,80.69
2023-03-29T18:07:17.517Z,81.08
2023-03-29T18:09:43.991Z,81.23
2023-03-29T18:12:10.877Z,81.04
2023-03-29T18:14:37.218Z,81.10
2023-03-29T18:17:03.990Z,81.52
2023-03-29T18:19:30.838Z,81.53
2023-03-29T18:21:57.485Z,81.54
2023-03-29T18:24:23.864Z,81.27
2023-03-29T18:26:50.299Z,81.84
2023-03-29T18:29:16.857Z,82.27
2023-03-29T18:31:43.864Z,82.40
2023-03-29T18:34:10.303Z,82.49
2023-03-29T18:36:37.090Z,82.47
2023-03-29T18:39:05.598Z,82.25
2023-03-29T18:41:34.376Z,82.38
2023-03-29T18:44:00.832Z,82.34
2023-03-29T18:46:30.995Z,83.03
2023-03-29T18:49:01.325Z,82.57
2023-03-29T18:51:28.282Z,82.46
2023-03-29T18:53:55.856Z,82.59
2023-03-29T18:56:22.333Z,82.92
2023-03-29T18:58:49.032Z,83.25
2023-03-29T19:01:15.614Z,83.18
2023-03-29T19:03:42.333Z,83.26
2023-03-29T19:06:08.834Z,82.88
2023-03-29T19:08:38.704Z,82.67
2023-03-29T19:11:07.358Z,82.91
2023-03-29T19:13:34.517Z,83.42
2023-03-29T19:16:01.170Z,83.26
2023-03-29T19:18:27.746Z,83.36
2023-03-29T19:20:54.492Z,83.88
2023-03-29T19:23:22.538Z,83.64
2023-03-29T19:25:57.079Z,83.63
2023-03-29T19:28:24.658Z,84.24
2023-03-29T19:30:51.202Z,83.86
2023-03-29T19:33:18.360Z,84.46
2023-03-29T19:35:44.899Z,84.71
2023-03-29T19:38:11.675Z,85.12
2023-03-29T19:40:38.539Z,84.98
2023-03-29T19:43:05.141Z,85.03
2023-03-29T19:45:31.829Z,85.52
2023-03-29T19:48:02.827Z,85.25
2023-03-29T19:50:31.508Z,85.85
2023-03-29T19:53:01.476Z,85.74
2023-03-29T19:55:28.340Z,85.57
2023-03-29T19:57:54.660Z,85.96
2023-03-29T20:00:24.932Z,86.02
2023-03-29T20:02:52.465Z,85.83
2023-03-29T20:05:20.120Z,86.29
2023-03-29T20:07:46.928Z,85.78
2023-03-29T20:10:13.371Z,86.72
2023-03-29T20:12:39.813Z,86.89
2023-03-29T20:15:07.393Z,87.09
2023-03-29T20:17:35.397Z,87.45
2023-03-29T20:20:03.058Z,87.39
2023-03-29T20:22:31.105Z,87.90
2023-03-29T20:24:57.534Z,87.78
2023-03-29T20:27:23.875Z,88.24
2023-03-29T20:29:50.626Z,88.06
2023-03-29T20:32:17.002Z,88.48
2023-03-29T20:34:43.330Z,88.37
2023-03-29T20:37:10.409Z,88.48
2023-03-29T20:39:37.167Z,88.46
2023-03-29T20:42:03.717Z,88.70
2023-03-29T20:44:31.963Z,88.92
2023-03-29T20:47:03.291Z,88.60
2023-03-29T20:49:39.741Z,88.33
2023-03-29T20:52:09.193Z,88.07
2023-03-29T20:54:36.991Z,88.33
2023-03-29T20:57:04.720Z,88.35
2023-03-29T20:59:31.050Z,87.50
2023-03-29T21:01:58.203Z,87.87
2023-03-29T21:04:24.838Z,88.20
2023-03-29T21:06:51.299Z,88.26
2023-03-29T21:09:23.343Z,87.85
2023-03-29T21:11:50.769Z,87.93
2023-03-29T21:14:21.175Z,87.51
2023-03-29T21:16:49.179Z,87.42
2023-03-29T21:19:16.761Z,87.50
2023-03-29T21:21:44.876Z,87.67
2023-03-29T21:24:13.650Z,87.81
2023-03-29T21:26:41.421Z,87.42
2023-03-29T21:29:08.099Z,86.91
2023-03-29T21:31:34.626Z,87.09
2023-03-29T21:34:01.022Z,87.15
2023-03-29T21:36:27.530Z,86.96
2023-03-29T21:38:54.216Z,87.00
2023-03-29T21:41:20.743Z,86.82
2023-03-29T21:43:47.899Z,86.83
2023-03-29T21:46:14.942Z,86.72
2023-03-29T21:48:41.849Z,86.47
2023-03-29T21:51:08.947Z,86.59
2023-03-29T21:53:35.613Z,86.97
2023-03-29T21:56:02.007Z,87.37
2023-03-29T21:58:28.349Z,86.80
2023-03-29T22:00:56.216Z,87.02
2023-03-29T22:03:23.343Z,87.18
2023-03-29T22:05:57.517Z,87.07
2023-03-29T22:08:26.735Z,86.91
2023-03-29T22:10:57.540Z,86.68
2023-03-29T22:13:28.751Z,86.78
2023-03-29T22:15:59.049Z,87.05
2023-03-29T22:18:46.898Z,86.20
2023-03-29T22:21:18.228Z,86.16
2023-03-29T22:23:47.413Z,86.33
2023-03-29T22:26:15.744Z,86.14
2023-03-29T22:28:42.318Z,85.89
2023-03-29T22:31:11.828Z,85.93
2023-03-29T22:33:38.695Z,85.81
2023-03-29T22:36:29.983Z,85.79
2023-03-29T22:38:56.900Z,85.90
2023-03-29T22:41:25.928Z,85.61
2023-03-29T22:43:53.316Z,85.87
2023-03-29T22:46:20.616Z,85.60
2023-03-29T22:48:47.694Z,86.05
2023-03-29T22:51:14.394Z,85.78
2023-03-29T22:53:40.772Z,85.61
2023-03-29T22:56:09.137Z,85.53
2023-03-29T22:58:38.782Z,85.62
2023-03-29T23:01:06.505Z,85.31
2023-03-29T23:03:33.300Z,85.29
2023-03-29T23:06:03.635Z,84.69
2023-03-29T23:08:32.217Z,84.66
2023-03-29T23:10:58.797Z,83.99
2023-03-29T23:13:28.564Z,83.95
2023-03-29T23:15:58.706Z,83.93
2023-03-29T23:18:27.735Z,83.83
2023-03-29T23:20:55.781Z,83.52
2023-03-29T23:23:23.850Z,83.26
2023-03-29T23:25:52.321Z,82.51
2023-03-29T23:28:23.382Z,82.69
2023-03-29T23:31:19.624Z,82.29
2023-03-29T23:33:46.341Z,81.78
2023-03-29T23:36:15.455Z,81.82
2023-03-29T23:38:44.438Z,82.14
2023-03-29T23:41:12.758Z,81.35
2023-03-29T23:43:41.354Z,81.32
2023-03-29T23:46:10.636Z,81.04
2023-03-29T23:48:37.924Z,80.60
2023-03-29T23:51:04.869Z,79.97
2023-03-29T23:53:32.028Z,80.22
2023-03-29T23:56:01.311Z,79.33
2023-03-29T23:58:30.880Z,78.78
